Time;durP1;ratioP1;P1;durP2;ratioP2;P2;SDS_P1;SDS_P2;PMS_P1;PMS_P2;Temp;Humidity;BMP_temperature;BMP_pressure;BME280_temperature;BME280_humidity;BME280_pressure;Samples;Min_cycle;Max_cycle;Signal;HPM_P1;HPM_P2
2023/12/25 00:01:11;;;;;;;5.77;3.60;;;;;;;7.18;100.00;97710.41;4233194;28;20293;-73
2023/12/25 00:03:38;;;;;;;6.53;3.40;;;;;;;7.20;100.00;97701.16;4231521;28;21289;-73
2023/12/25 00:06:16;;;;;;;5.83;3.47;;;;;;;7.31;100.00;97718.63;4237331;28;21322;-72
2023/12/25 00:08:42;;;;;;;6.80;2.73;;;;;;;7.34;100.00;97706.66;4234760;28;20869;-72
2023/12/25 00:11:10;;;;;;;6.70;3.40;;;;;;;7.30;100.00;97706.22;4247974;28;21109;-72
2023/12/25 00:13:37;;;;;;;6.03;3.47;;;;;;;7.27;100.00;97701.19;4222554;28;21495;-73
2023/12/25 00:16:03;;;;;;;5.20;3.33;;;;;;;7.38;100.00;97710.59;4231924;28;21787;-74
2023/12/25 00:18:30;;;;;;;5.73;3.40;;;;;;;7.45;100.00;97695.34;4230131;28;21167;-73
2023/12/25 00:20:57;;;;;;;4.67;3.10;;;;;;;7.46;100.00;97707.78;4235328;28;20356;-68
2023/12/25 00:23:24;;;;;;;5.17;3.37;;;;;;;7.44;100.00;97693.66;4226851;28;20234;-70
2023/12/25 00:25:50;;;;;;;6.13;3.50;;;;;;;7.44;100.00;97713.34;4228967;28;20343;-70
2023/12/25 00:28:17;;;;;;;5.63;3.70;;;;;;;7.48;100.00;97726.44;4232450;28;20439;-73
2023/12/25 00:30:43;;;;;;;6.50;4.00;;;;;;;7.51;100.00;97723.34;4220525;28;20226;-73
2023/12/25 00:33:10;;;;;;;7.93;4.00;;;;;;;7.64;100.00;97731.50;4227505;28;20238;-72
2023/12/25 00:35:37;;;;;;;6.27;4.70;;;;;;;7.68;100.00;97715.81;4230755;28;20255;-71
2023/12/25 00:38:04;;;;;;;4.40;1.73;;;;;;;7.79;100.00;97728.75;4230024;28;20242;-72
2023/12/25 00:40:31;;;;;;;6.97;4.90;;;;;;;7.81;100.00;97733.91;4229354;28;20297;-71
2023/12/25 00:42:57;;;;;;;6.50;4.70;;;;;;;7.76;100.00;97727.28;4233662;28;20524;-70
2023/12/25 00:45:24;;;;;;;7.40;4.30;;;;;;;7.85;100.00;97725.25;4238795;28;21190;-70
2023/12/25 00:47:50;;;;;;;10.17;4.90;;;;;;;7.86;100.00;97729.63;4236695;28;20304;-70
2023/12/25 00:50:18;;;;;;;5.53;4.07;;;;;;;7.89;100.00;97728.38;4233979;28;20234;-70
2023/12/25 00:52:44;;;;;;;6.77;4.40;;;;;;;7.90;100.00;97730.06;4230120;28;22492;-72
2023/12/25 00:55:11;;;;;;;5.60;4.07;;;;;;;7.90;100.00;97722.78;4233371;28;21228;-71
2023/12/25 00:57:38;;;;;;;6.67;4.10;;;;;;;7.86;100.00;97737.69;4238708;28;20924;-73
2023/12/25 01:00:05;;;;;;;6.10;4.50;;;;;;;7.90;100.00;97738.97;4229905;28;20227;-70
2023/12/25 01:02:32;;;;;;;6.13;4.63;;;;;;;7.92;100.00;97746.84;4229383;28;20656;-71
2023/12/25 01:04:59;;;;;;;9.63;4.90;;;;;;;7.92;100.00;97747.69;4233557;28;22300;-72
2023/12/25 01:07:25;;;;;;;5.87;4.63;;;;;;;7.95;100.00;97730.28;4221591;28;20704;-71
2023/12/25 01:09:52;;;;;;;7.00;4.60;;;;;;;7.89;100.00;97728.38;4217237;28;21773;-70
2023/12/25 01:12:19;;;;;;;6.27;4.70;;;;;;;7.86;100.00;97724.22;4225423;28;20327;-71
2023/12/25 01:14:46;;;;;;;9.17;5.33;;;;;;;7.80;100.00;97721.47;4250011;28;20231;-70
2023/12/25 01:17:13;;;;;;;8.70;5.57;;;;;;;7.88;100.00;97737.50;4266817;28;20226;-67
2023/12/25 01:19:40;;;;;;;8.27;5.87;;;;;;;7.81;100.00;97732.06;4229565;28;22766;-70
2023/12/25 01:22:06;;;;;;;7.20;3.53;;;;;;;7.82;100.00;97746.38;4249468;28;20246;-69
2023/12/25 01:24:33;;;;;;;8.60;5.37;;;;;;;7.80;100.00;97738.50;4220372;28;20458;-70
2023/12/25 01:27:00;;;;;;;8.70;6.10;;;;;;;7.86;100.00;97731.47;4233142;28;21601;-69
2023/12/25 01:29:26;;;;;;;9.07;6.30;;;;;;;7.92;100.00;97728.81;4231269;28;20421;-70
2023/12/25 01:31:53;;;;;;;7.47;5.27;;;;;;;7.89;100.00;97728.38;4230639;28;22876;-72
2023/12/25 01:34:20;;;;;;;8.37;5.50;;;;;;;7.95;100.00;97734.84;4239558;28;20231;-69
2023/12/25 01:36:46;;;;;;;7.00;5.33;;;;;;;7.96;100.00;97723.06;4240205;28;22766;-70
2023/12/25 01:39:13;;;;;;;8.53;5.37;;;;;;;7.91;100.00;97724.47;4238083;28;20240;-69
2023/12/25 01:41:40;;;;;;;10.27;5.27;;;;;;;7.89;100.00;97729.22;4233654;28;25354;-71
2023/12/25 01:44:06;;;;;;;6.73;4.87;;;;;;;7.95;100.00;97732.16;4244703;28;20238;-72
2023/12/25 01:46:46;;;;;;;7.77;3.90;;;;;;;8.01;100.00;97724.09;4241728;28;20252;-70
2023/12/25 01:49:12;;;;;;;4.10;3.13;;;;;;;8.04;100.00;97730.97;4227880;28;20230;-71
2023/12/25 01:51:39;;;;;;;4.73;2.67;;;;;;;8.06;100.00;97726.22;4230337;28;20238;-70
2023/12/25 01:54:07;;;;;;;3.13;2.17;;;;;;;8.12;100.00;97740.75;4237599;28;20408;-71
2023/12/25 01:56:34;;;;;;;2.13;1.63;;;;;;;8.16;100.00;97748.25;4236756;28;20238;-70
2023/12/25 01:59:02;;;;;;;1.93;1.50;;;;;;;8.18;100.00;97745.34;4241612;28;20373;-70
2023/12/25 02:01:29;;;;;;;1.97;1.20;;;;;;;8.16;100.00;97737.47;4228735;28;20227;-71
2023/12/25 02:03:55;;;;;;;2.90;1.00;;;;;;;8.16;100.00;97728.53;4233642;28;20293;-69
2023/12/25 02:06:24;;;;;;;1.30;0.90;;;;;;;8.11;100.00;97731.84;4230178;28;20351;-71
2023/12/25 02:08:51;;;;;;;1.27;0.73;;;;;;;8.12;100.00;97736.19;4231321;28;20230;-70
2023/12/25 02:11:18;;;;;;;1.40;0.80;;;;;;;8.04;100.00;97729.09;4231652;28;20354;-69
2023/12/25 02:13:45;;;;;;;0.73;0.40;;;;;;;8.05;100.00;97751.47;4239557;28;20961;-72
2023/12/25 02:16:12;;;;;;;1.23;0.40;;;;;;;8.04;100.00;97752.53;4251485;28;20556;-72
2023/12/25 02:18:39;;;;;;;1.63;0.40;;;;;;;7.94;100.00;97755.56;4222592;28;20226;-72
2023/12/25 02:21:05;;;;;;;1.40;0.40;;;;;;;7.87;100.00;97765.44;4231513;28;20409;-68
2023/12/25 02:23:36;;;;;;;2.30;0.30;;;;;;;7.82;100.00;97760.66;4231285;28;20223;-70
2023/12/25 02:26:05;;;;;;;0.97;0.50;;;;;;;7.72;100.00;97761.00;4239935;28;20579;-71
2023/12/25 02:28:31;;;;;;;3.80;0.60;;;;;;;7.70;100.00;97773.00;4226706;28;21432;-70
2023/12/25 02:30:58;;;;;;;1.00;0.60;;;;;;;7.64;100.00;97779.16;4227489;28;20265;-71
2023/12/25 02:33:26;;;;;;;1.03;0.50;;;;;;;7.65;100.00;97797.81;4232805;28;20237;-69
2023/12/25 02:35:53;;;;;;;1.23;0.50;;;;;;;7.64;100.00;97779.97;4223770;28;20388;-70
2023/12/25 02:38:20;;;;;;;3.97;0.60;;;;;;;7.59;100.00;97785.13;4229102;28;20363;-70
2023/12/25 02:40:47;;;;;;;1.77;0.90;;;;;;;7.58;100.00;97788.84;4245721;28;21283;-72
2023/12/25 02:43:13;;;;;;;2.87;1.00;;;;;;;7.61;100.00;97791.16;4238123;28;20235;-71
2023/12/25 02:45:40;;;;;;;3.20;1.47;;;;;;;7.66;100.00;97793.28;4228994;28;20591;-70
2023/12/25 02:48:07;;;;;;;3.03;1.47;;;;;;;7.61;100.00;97797.38;4228625;28;20336;-73
2023/12/25 02:50:34;;;;;;;2.50;1.30;;;;;;;7.67;100.00;97795.75;4237034;28;20247;-71
2023/12/25 02:53:03;;;;;;;1.87;1.10;;;;;;;7.63;100.00;97796.34;4243542;28;20640;-71
2023/12/25 02:55:30;;;;;;;10.07;1.37;;;;;;;7.63;100.00;97816.00;4245245;28;20269;-70
2023/12/25 02:57:57;;;;;;;4.30;1.03;;;;;;;7.61;100.00;97807.31;4241129;28;20230;-73
2023/12/25 03:00:23;;;;;;;1.97;0.87;;;;;;;7.60;100.00;97819.09;4235634;28;22906;-70
2023/12/25 03:02:50;;;;;;;1.43;0.63;;;;;;;7.64;100.00;97808.78;4234863;28;22461;-71
2023/12/25 03:05:17;;;;;;;4.20;0.87;;;;;;;7.59;100.00;97807.47;4236048;28;20257;-72
2023/12/25 03:07:44;;;;;;;3.10;0.60;;;;;;;7.60;100.00;97797.56;4228659;28;21149;-71
2023/12/25 03:10:10;;;;;;;3.13;0.70;;;;;;;7.60;100.00;97817.22;4219539;28;20247;-71
2023/12/25 03:12:37;;;;;;;4.07;0.70;;;;;;;7.60;100.00;97816.41;4245628;28;20249;-70
2023/12/25 03:15:04;;;;;;;3.13;0.60;;;;;;;7.67;100.00;97813.75;4259131;28;20237;-72
2023/12/25 03:17:31;;;;;;;1.80;0.50;;;;;;;7.70;100.00;97813.38;4236403;28;20312;-71
2023/12/25 03:19:58;;;;;;;3.43;0.50;;;;;;;7.67;100.00;97830.75;4229129;28;20230;-72
2023/12/25 03:22:24;;;;;;;7.63;0.90;;;;;;;7.60;100.00;97838.75;4224354;28;23653;-70
2023/12/25 03:24:51;;;;;;;1.40;0.60;;;;;;;7.63;100.00;97840.25;4219626;28;20230;-70
2023/12/25 03:27:17;;;;;;;1.07;0.50;;;;;;;7.60;100.00;97841.47;4232242;28;20280;-69
2023/12/25 03:29:44;;;;;;;2.00;0.60;;;;;;;7.54;100.00;97842.22;4233085;28;20293;-70
2023/12/25 03:32:11;;;;;;;3.00;0.67;;;;;;;7.59;100.00;97844.34;4225404;28;20234;-71
2023/12/25 03:34:47;;;;;;;2.37;0.50;;;;;;;7.50;100.00;97840.13;4229233;28;20770;-71
2023/12/25 03:37:15;;;;;;;1.77;0.60;;;;;;;7.51;100.00;97847.16;4231927;28;21007;-72
2023/12/25 03:39:42;;;;;;;3.93;0.80;;;;;;;7.53;100.00;97837.06;4227279;28;20285;-71
2023/12/25 03:42:08;;;;;;;1.07;0.50;;;;;;;7.58;100.00;97837.28;4216469;28;20223;-72
2023/12/25 03:44:35;;;;;;;7.70;0.60;;;;;;;7.53;100.00;97847.81;4231661;28;20243;-74
2023/12/25 03:47:02;;;;;;;1.63;0.60;;;;;;;7.47;100.00;97860.19;4226549;28;21655;-72
2023/12/25 03:49:29;;;;;;;0.83;0.50;;;;;;;7.47;100.00;97868.25;4240860;28;20229;-74
2023/12/25 03:51:57;;;;;;;3.07;0.50;;;;;;;7.47;100.00;97868.25;4213637;28;20556;-71
2023/12/25 03:54:23;;;;;;;2.00;0.60;;;;;;;7.44;100.00;97882.94;4233257;28;22847;-72
2023/12/25 03:56:50;;;;;;;1.47;0.60;;;;;;;7.46;100.00;97885.44;4237071;28;20374;-71
2023/12/25 03:59:16;;;;;;;2.93;0.87;;;;;;;7.47;100.00;97897.03;4237085;28;20306;-70
2023/12/25 04:01:43;;;;;;;2.20;0.60;;;;;;;7.51;100.00;97903.69;4243149;28;20222;-71
2023/12/25 04:04:09;;;;;;;2.17;0.60;;;;;;;7.48;100.00;97896.84;4235792;28;20390;-74
2023/12/25 04:06:36;;;;;;;2.60;0.60;;;;;;;7.55;100.00;97913.91;4248598;28;20292;-72
2023/12/25 04:09:04;;;;;;;2.00;0.53;;;;;;;7.51;100.00;97912.63;4239723;28;20292;-72
2023/12/25 04:11:30;;;;;;;4.80;0.70;;;;;;;7.52;100.00;97924.22;4239986;28;20295;-73
2023/12/25 04:13:58;;;;;;;2.63;0.63;;;;;;;7.55;100.00;97921.16;4242477;28;20238;-72
2023/12/25 04:16:28;;;;;;;3.37;0.80;;;;;;;7.56;100.00;97923.66;4252385;28;23064;-71
2023/12/25 04:18:55;;;;;;;3.97;0.70;;;;;;;7.52;100.00;97933.13;4229384;28;20245;-73
2023/12/25 04:21:31;;;;;;;3.30;0.60;;;;;;;7.45;100.00;97933.06;4235459;28;22472;-70
2023/12/25 04:23:58;;;;;;;2.97;1.00;;;;;;;7.44;100.00;97942.16;4244797;28;20419;-71
2023/12/25 04:26:26;;;;;;;6.50;0.90;;;;;;;7.43;100.00;97945.88;4261243;28;22327;-70
2023/12/25 04:28:53;;;;;;;4.30;0.93;;;;;;;7.38;100.00;97952.81;4242006;28;20257;-71
2023/12/25 04:31:20;;;;;;;5.77;0.80;;;;;;;7.34;100.00;97951.53;4235493;28;20226;-73
2023/12/25 04:33:47;;;;;;;1.70;0.70;;;;;;;7.36;100.00;97950.31;4241034;28;20234;-70
2023/12/25 04:36:13;;;;;;;2.10;0.70;;;;;;;7.27;100.00;97960.38;4251451;28;20589;-71
2023/12/25 04:38:40;;;;;;;4.10;0.90;;;;;;;7.22;100.00;97970.84;4232042;28;23343;-71
2023/12/25 04:41:07;;;;;;;4.07;0.70;;;;;;;7.18;100.00;97974.94;4237704;28;21495;-71
2023/12/25 04:43:33;;;;;;;3.20;0.90;;;;;;;7.26;100.00;97976.69;4237394;28;22204;-71
2023/12/25 04:46:02;;;;;;;2.93;1.03;;;;;;;7.24;100.00;97966.13;4245596;28;20238;-71
2023/12/25 04:48:29;;;;;;;2.37;0.90;;;;;;;7.22;100.00;97964.63;4239766;28;20237;-71
2023/12/25 04:50:59;;;;;;;2.70;0.83;;;;;;;7.23;100.00;97963.63;4236360;28;20231;-71
2023/12/25 04:53:26;;;;;;;2.07;0.87;;;;;;;7.21;100.00;97960.28;4236654;28;21657;-70
2023/12/25 04:55:52;;;;;;;3.53;0.83;;;;;;;7.26;100.00;97963.22;4227442;28;20681;-74
2023/12/25 04:58:19;;;;;;;3.57;0.87;;;;;;;7.26;100.00;97958.69;4233720;28;20235;-72
2023/12/25 05:00:46;;;;;;;4.03;0.83;;;;;;;7.28;100.00;97971.97;4235539;28;22205;-70
2023/12/25 05:03:13;;;;;;;2.17;0.90;;;;;;;7.16;100.00;97965.41;4236273;28;21108;-72
2023/12/25 05:05:39;;;;;;;1.80;0.80;;;;;;;7.11;100.00;97969.47;4246174;28;21338;-74
2023/12/25 05:08:06;;;;;;;5.30;0.90;;;;;;;7.14;100.00;97965.56;4252540;28;22069;-73
2023/12/25 05:10:33;;;;;;;4.43;0.87;;;;;;;7.16;100.00;97957.31;4231274;28;23712;-71
2023/12/25 05:13:00;;;;;;;3.03;0.80;;;;;;;7.13;100.00;97947.78;4246410;28;20389;-70
2023/12/25 05:15:27;;;;;;;2.70;0.77;;;;;;;7.17;100.00;97970.56;4257834;28;20747;-71
2023/12/25 05:17:53;;;;;;;2.80;1.07;;;;;;;7.18;100.00;97977.63;4260982;28;20286;-70
2023/12/25 05:20:21;;;;;;;7.77;1.27;;;;;;;7.12;100.00;97965.75;4237734;28;20243;-72
2023/12/25 05:22:47;;;;;;;3.90;0.93;;;;;;;7.13;100.00;97956.66;4245458;28;23369;-72
2023/12/25 05:25:14;;;;;;;5.90;1.30;;;;;;;7.21;100.00;97969.19;4257583;28;20308;-71
2023/12/25 05:27:40;;;;;;;2.97;0.90;;;;;;;7.21;100.00;97973.72;4234875;28;20239;-70
2023/12/25 05:30:08;;;;;;;4.47;0.90;;;;;;;7.18;100.00;97979.47;4247224;28;20230;-70
2023/12/25 05:32:36;;;;;;;9.70;1.33;;;;;;;7.20;100.00;97974.75;4243253;28;21459;-70
2023/12/25 05:35:06;;;;;;;4.53;1.50;;;;;;;7.30;100.00;97981.50;4240121;28;20685;-70
2023/12/25 05:37:33;;;;;;;7.40;1.50;;;;;;;7.35;100.00;97983.66;4234310;28;20227;-70
2023/12/25 05:40:00;;;;;;;8.67;1.77;;;;;;;7.35;100.00;97980.94;4255436;28;20477;-70
2023/12/25 05:42:26;;;;;;;4.67;1.00;;;;;;;7.35;100.00;97988.22;4241493;28;20234;-70
2023/12/25 05:44:53;;;;;;;2.23;1.10;;;;;;;7.39;100.00;97990.34;4241121;28;20357;-69
2023/12/25 05:47:20;;;;;;;4.07;1.17;;;;;;;7.35;100.00;97996.28;4251702;28;20357;-71
2023/12/25 05:49:47;;;;;;;4.47;1.07;;;;;;;7.38;100.00;97990.50;4235419;28;22149;-71
2023/12/25 05:52:13;;;;;;;5.43;1.10;;;;;;;7.34;100.00;97991.91;4243120;28;22638;-70
2023/12/25 05:54:41;;;;;;;3.77;1.10;;;;;;;7.35;100.00;98001.66;4238591;28;20416;-70
2023/12/25 05:57:07;;;;;;;7.07;1.20;;;;;;;7.28;100.00;98004.25;4234181;28;20238;-70
2023/12/25 05:59:35;;;;;;;2.47;1.20;;;;;;;7.25;100.00;97989.31;4234655;28;20235;-71
2023/12/25 06:02:02;;;;;;;7.00;1.30;;;;;;;7.17;100.00;98002.88;4238657;28;20343;-70
2023/12/25 06:04:29;;;;;;;4.40;1.37;;;;;;;7.13;100.00;98001.59;4240291;28;20425;-72
2023/12/25 06:06:56;;;;;;;6.47;1.70;;;;;;;7.13;100.00;98015.03;4231714;28;20602;-69
2023/12/25 06:09:23;;;;;;;2.30;1.40;;;;;;;7.19;100.00;98005.34;4244540;28;20243;-70
2023/12/25 06:11:49;;;;;;;5.17;1.27;;;;;;;7.08;100.00;97994.06;4228967;28;21624;-70
2023/12/25 06:14:16;;;;;;;4.20;2.07;;;;;;;7.14;100.00;97985.25;4237605;28;21652;-71
2023/12/25 06:16:42;;;;;;;6.83;2.60;;;;;;;7.09;100.00;97993.03;4241309;28;20281;-70
2023/12/25 06:19:09;;;;;;;4.33;2.53;;;;;;;7.06;100.00;97989.91;4235890;28;21257;-70
2023/12/25 06:21:36;;;;;;;5.93;2.10;;;;;;;7.28;100.00;97999.72;4237733;28;20227;-70
2023/12/25 06:24:02;;;;;;;4.43;1.37;;;;;;;7.29;100.00;98027.47;4236111;28;20241;-69
2023/12/25 06:26:29;;;;;;;6.13;1.60;;;;;;;7.25;100.00;98034.25;4232765;28;22278;-71
2023/12/25 06:28:56;;;;;;;4.73;1.37;;;;;;;7.28;100.00;98034.72;4243075;28;20295;-74
2023/12/25 06:31:22;;;;;;;3.73;1.10;;;;;;;7.24;100.00;98027.19;4254011;28;20238;-71
2023/12/25 06:33:49;;;;;;;10.87;1.63;;;;;;;7.17;100.00;98048.59;4259870;28;21134;-71
2023/12/25 06:36:16;;;;;;;7.63;1.47;;;;;;;7.18;100.00;98041.34;4250016;28;20230;-73
2023/12/25 06:38:42;;;;;;;5.13;1.10;;;;;;;7.22;100.00;98034.59;4241014;28;23098;-70
2023/12/25 06:41:12;;;;;;;3.17;1.10;;;;;;;7.15;100.00;98037.19;4245850;28;21524;-71
2023/12/25 06:43:38;;;;;;;6.20;1.47;;;;;;;7.20;100.00;98048.25;4242823;28;20813;-72
2023/12/25 06:46:05;;;;;;;2.53;1.20;;;;;;;7.23;100.00;98055.94;4240321;28;22621;-74
2023/12/25 06:48:32;;;;;;;4.40;1.20;;;;;;;7.16;100.00;98049.63;4251852;28;20306;-69
2023/12/25 06:50:58;;;;;;;5.17;1.10;;;;;;;7.19;100.00;98054.66;4274198;28;20383;-72
2023/12/25 06:53:25;;;;;;;1.43;1.00;;;;;;;7.18;100.00;98052.13;4256074;28;20241;-71
2023/12/25 06:55:52;;;;;;;9.07;1.10;;;;;;;7.24;100.00;98062.16;4250692;28;26350;-71
2023/12/25 06:58:18;;;;;;;5.90;1.10;;;;;;;7.24;100.00;98065.69;4252326;28;20593;-75
2023/12/25 07:00:45;;;;;;;5.43;1.30;;;;;;;7.18;100.00;98073.66;4253437;28;20229;-71
2023/12/25 07:03:11;;;;;;;3.97;1.20;;;;;;;7.19;100.00;98037.66;4261879;28;20241;-72
2023/12/25 07:05:39;;;;;;;2.47;1.10;;;;;;;7.14;100.00;98043.59;4265260;28;20230;-73
2023/12/25 07:08:06;;;;;;;4.73;1.40;;;;;;;7.13;100.00;98037.38;4319044;28;20237;-73
2023/12/25 07:10:33;;;;;;;3.90;1.20;;;;;;;7.13;100.00;98031.19;4311615;28;20229;-78
2023/12/25 07:13:00;;;;;;;4.70;1.10;;;;;;;7.16;100.00;98046.09;4265592;28;20663;-75
2023/12/25 07:15:28;;;;;;;4.50;1.03;;;;;;;7.15;100.00;98045.25;4256541;28;23269;-74
2023/12/25 07:17:55;;;;;;;5.53;1.03;;;;;;;7.18;100.00;98047.59;4253285;28;20257;-75
2023/12/25 07:20:22;;;;;;;10.33;1.30;;;;;;;7.22;100.00;98046.19;4271979;28;20241;-74
2023/12/25 07:22:52;;;;;;;5.93;1.03;;;;;;;7.21;100.00;98047.22;4263769;28;21982;-75
2023/12/25 07:25:20;;;;;;;5.77;1.00;;;;;;;7.16;100.00;98038.84;4261258;28;20240;-77
2023/12/25 07:27:47;;;;;;;7.17;1.03;;;;;;;7.21;100.00;98051.75;4274528;28;22296;-73
2023/12/25 07:30:14;;;;;;;6.60;1.30;;;;;;;7.17;100.00;98048.59;4273018;28;20308;-75
2023/12/25 07:32:41;;;;;;;6.23;1.20;;;;;;;7.20;100.00;98050.94;4282865;28;20238;-77
2023/12/25 07:35:08;;;;;;;4.37;0.97;;;;;;;7.24;100.00;98052.22;4271425;28;20234;-75
2023/12/25 07:37:35;;;;;;;4.23;1.33;;;;;;;7.27;100.00;98051.88;4294339;28;21501;-75
2023/12/25 07:40:01;;;;;;;6.30;1.30;;;;;;;7.27;100.00;98046.50;4251078;28;20233;-75
2023/12/25 07:42:28;;;;;;;6.63;1.23;;;;;;;7.25;100.00;98045.84;4280458;28;20233;-78
2023/12/25 07:44:55;;;;;;;5.67;1.03;;;;;;;7.30;100.00;98042.59;4250801;28;21619;-77
2023/12/25 07:47:22;;;;;;;6.57;1.10;;;;;;;7.37;100.00;98053.44;4269152;28;21080;-76
2023/12/25 07:49:50;;;;;;;9.83;1.43;;;;;;;7.34;100.00;98051.13;4271527;28;20250;-75
2023/12/25 07:52:16;;;;;;;2.53;1.07;;;;;;;7.41;100.00;98049.34;4265359;28;20603;-74
2023/12/25 07:54:43;;;;;;;3.93;0.93;;;;;;;7.47;100.00;98045.91;4281794;28;20250;-76
2023/12/25 07:57:10;;;;;;;4.33;1.20;;;;;;;7.44;100.00;98057.03;4280926;28;20321;-75
2023/12/25 07:59:36;;;;;;;9.83;1.53;;;;;;;7.47;100.00;98043.22;4245454;28;20234;-74
2023/12/25 08:02:03;;;;;;;3.33;1.00;;;;;;;7.50;100.00;98050.09;4311346;28;20323;-74
2023/12/25 08:04:30;;;;;;;5.80;1.30;;;;;;;7.57;100.00;98041.09;4280086;28;20639;-74
2023/12/25 08:06:57;;;;;;;12.03;1.30;;;;;;;7.56;100.00;98076.25;4272921;28;20234;-77
2023/12/25 08:09:23;;;;;;;4.93;1.50;;;;;;;7.59;100.00;98060.56;4234395;28;20369;-73
2023/12/25 08:11:50;;;;;;;4.90;1.50;;;;;;;7.61;100.00;98047.75;4253988;28;20550;-75
2023/12/25 08:14:16;;;;;;;8.33;1.00;;;;;;;7.65;100.00;98053.59;4238393;28;22236;-73
2023/12/25 08:16:43;;;;;;;15.43;2.27;;;;;;;7.65;100.00;98068.94;4249964;28;20799;-76
2023/12/25 08:19:09;;;;;;;6.43;1.10;;;;;;;7.60;100.00;98048.78;4251344;28;21196;-75
2023/12/25 08:21:36;;;;;;;6.07;1.50;;;;;;;7.64;100.00;98051.94;4251961;28;20245;-72
2023/12/25 08:24:03;;;;;;;6.90;1.10;;;;;;;7.56;100.00;98058.25;4241551;28;22925;-75
2023/12/25 08:26:30;;;;;;;5.73;1.37;;;;;;;7.65;100.00;98053.59;4238954;28;20330;-72
2023/12/25 08:28:57;;;;;;;4.43;0.83;;;;;;;7.67;100.00;98069.56;4231897;28;20298;-72
2023/12/25 08:31:24;;;;;;;6.03;1.20;;;;;;;7.72;100.00;98065.28;4236655;28;20293;-73
2023/12/25 08:33:50;;;;;;;4.87;1.27;;;;;;;7.79;100.00;98068.09;4249735;28;20714;-72
2023/12/25 08:36:17;;;;;;;9.37;1.47;;;;;;;7.77;100.00;98067.44;4244610;28;20237;-75
2023/12/25 08:38:44;;;;;;;2.87;1.10;;;;;;;7.88;99.73;98080.44;4238406;28;21950;-75
2023/12/25 08:41:11;;;;;;;4.33;1.20;;;;;;;7.88;99.32;98077.72;4266785;28;20307;-73
2023/12/25 08:43:39;;;;;;;9.53;1.30;;;;;;;7.90;99.54;98080.22;4271282;28;20297;-74
2023/12/25 08:46:16;;;;;;;5.50;1.13;;;;;;;7.89;99.37;98092.84;4229537;28;21047;-72
2023/12/25 08:48:43;;;;;;;7.37;1.27;;;;;;;7.90;99.24;98083.75;4242419;28;20230;-72
2023/12/25 08:51:10;;;;;;;8.40;1.30;;;;;;;7.88;99.60;98083.13;4235387;28;20294;-73
2023/12/25 08:53:37;;;;;;;7.77;1.70;;;;;;;7.87;99.76;98077.91;4237682;28;20417;-73
2023/12/25 08:56:04;;;;;;;7.23;1.50;;;;;;;7.89;99.28;98079.38;4249350;28;21079;-71
2023/12/25 08:58:30;;;;;;;3.87;1.30;;;;;;;7.93;98.68;98080.69;4260175;28;21102;-72
2023/12/25 09:00:57;;;;;;;7.27;1.23;;;;;;;7.98;98.31;98082.81;4257646;28;20227;-73
2023/12/25 09:03:23;;;;;;;13.27;2.30;;;;;;;8.04;97.82;98076.66;4239385;28;20257;-74
2023/12/25 09:05:50;;;;;;;8.43;1.50;;;;;;;8.16;97.06;98068.94;4250920;28;25481;-73
2023/12/25 09:08:17;;;;;;;5.93;1.37;;;;;;;8.16;96.83;98079.72;4260523;28;20235;-71
2023/12/25 09:10:43;;;;;;;6.93;1.67;;;;;;;8.16;97.16;98081.56;4240506;28;20231;-75
2023/12/25 09:13:10;;;;;;;13.90;1.53;;;;;;;8.13;96.86;98066.59;4260026;28;20351;-72
2023/12/25 09:15:36;;;;;;;8.27;1.40;;;;;;;8.17;97.34;98057.13;4273895;28;20590;-71
2023/12/25 09:18:03;;;;;;;10.13;2.03;;;;;;;8.22;96.85;98062.78;4245120;28;20553;-72
2023/12/25 09:20:30;;;;;;;4.97;1.37;;;;;;;8.34;96.36;98073.88;4240044;28;20251;-74
2023/12/25 09:22:57;;;;;;;5.97;1.40;;;;;;;8.36;95.39;98069.16;4240693;28;20241;-74
2023/12/25 09:25:23;;;;;;;5.80;1.60;;;;;;;8.40;95.30;98075.00;4240722;28;25402;-74
2023/12/25 09:27:50;;;;;;;6.33;1.13;;;;;;;8.43;95.38;98076.47;4260032;28;20235;-72
2023/12/25 09:30:17;;;;;;;6.03;1.30;;;;;;;8.50;94.95;98075.50;4238248;28;20237;-74
2023/12/25 09:32:43;;;;;;;5.13;1.70;;;;;;;8.53;94.22;98064.34;4254476;28;20639;-73
2023/12/25 09:35:12;;;;;;;6.33;1.43;;;;;;;8.58;94.55;98071.88;4241220;28;21181;-71
2023/12/25 09:37:39;;;;;;;6.30;1.67;;;;;;;8.52;95.20;98062.69;4246311;28;20297;-71
2023/12/25 09:40:06;;;;;;;9.47;1.67;;;;;;;8.54;95.23;98062.47;4257299;28;21538;-76
2023/12/25 09:42:33;;;;;;;6.13;1.80;;;;;;;8.57;94.87;98064.81;4254657;28;24551;-71
2023/12/25 09:45:00;;;;;;;8.00;1.80;;;;;;;8.59;94.83;98061.91;4250427;28;20331;-73
2023/12/25 09:47:27;;;;;;;6.17;1.40;;;;;;;8.68;93.86;98042.72;4259896;28;20232;-75
2023/12/25 09:49:56;;;;;;;8.40;1.90;;;;;;;8.79;92.90;98056.69;4246747;28;20237;-73
2023/12/25 09:52:24;;;;;;;4.83;1.47;;;;;;;8.94;91.63;98038.56;4249607;28;20593;-73
2023/12/25 09:54:51;;;;;;;5.10;1.37;;;;;;;9.34;90.16;98048.78;4269625;28;20229;-72
2023/12/25 09:57:18;;;;;;;3.60;1.23;;;;;;;9.09;91.22;98038.47;4246725;28;20234;-75
2023/12/25 09:59:46;;;;;;;7.93;1.33;;;;;;;9.40;89.45;98050.72;4266036;28;21780;-75
2023/12/25 10:02:14;;;;;;;6.00;1.40;;;;;;;9.43;87.77;98052.19;4288291;28;21704;-79
2023/12/25 10:04:43;;;;;;;5.32;1.40;;;;;;;9.40;88.67;98044.47;4279118;28;20913;-75
2023/12/25 10:07:10;;;;;;;6.63;1.60;;;;;;;9.31;88.45;98050.00;4243911;28;21208;-75
2023/12/25 10:09:38;;;;;;;8.87;2.03;;;;;;;9.12;88.89;98048.84;4262819;28;24914;-75
2023/12/25 10:12:06;;;;;;;4.27;1.33;;;;;;;9.09;89.10;98043.88;4271793;28;21629;-75
2023/12/25 10:14:32;;;;;;;8.77;1.50;;;;;;;9.04;89.91;98049.00;4247818;28;20235;-72
2023/12/25 10:16:59;;;;;;;4.10;1.37;;;;;;;8.90;90.90;98055.31;4250370;28;20242;-71
2023/12/25 10:19:26;;;;;;;5.90;1.40;;;;;;;8.93;90.33;98063.03;4235412;28;21058;-73
2023/12/25 10:21:53;;;;;;;6.47;2.23;;;;;;;9.03;91.60;98067.06;4253690;28;20700;-55
2023/12/25 10:24:29;;;;;;;5.87;1.10;;;;;;;9.06;89.82;98075.81;4225581;28;25131;-74
2023/12/25 10:27:02;;;;;;;5.57;1.60;;;;;;;8.87;90.45;98083.53;4232289;28;20311;-70
2023/12/25 10:29:35;;;;;;;5.03;1.33;;;;;;;8.81;90.76;98068.94;4237036;28;20242;-71
2023/12/25 10:32:18;;;;;;;6.50;1.50;;;;;;;8.78;90.97;98068.50;4246479;28;20505;-71
2023/12/25 10:34:46;;;;;;;3.50;1.67;;;;;;;8.83;90.88;98082.28;4244910;28;20557;-70
2023/12/25 10:37:15;;;;;;;6.27;1.30;;;;;;;8.87;90.02;98076.25;4241400;28;20234;-74
2023/12/25 10:39:41;;;;;;;6.50;1.00;;;;;;;8.92;89.53;98067.59;4235955;28;21035;-74
2023/12/25 10:42:10;;;;;;;4.93;1.50;;;;;;;8.90;89.92;98061.56;4229746;28;20336;-72
2023/12/25 10:44:37;;;;;;;8.53;1.87;;;;;;;8.90;90.43;98055.31;4238448;28;20510;-73
2023/12/25 10:47:08;;;;;;;6.27;1.63;;;;;;;8.86;90.38;98050.34;4234562;28;21658;-72
2023/12/25 10:49:35;;;;;;;4.17;1.30;;;;;;;8.93;90.61;98060.34;4238667;28;20598;-71
2023/12/25 10:52:04;;;;;;;7.40;2.10;;;;;;;8.90;90.92;98052.63;4237785;28;21704;-72
2023/12/25 10:54:32;;;;;;;5.53;1.27;;;;;;;9.09;90.38;98060.06;4231495;28;20245;-73
2023/12/25 10:57:03;;;;;;;4.43;1.50;;;;;;;9.12;90.31;98056.94;4250439;28;20421;-75
2023/12/25 10:59:32;;;;;;;4.90;1.30;;;;;;;9.14;90.11;98043.28;4238035;28;20248;-71
2023/12/25 11:02:05;;;;;;;10.60;1.77;;;;;;;9.47;87.70;98046.19;4246314;28;21737;-73
2023/12/25 11:04:32;;;;;;;7.00;1.70;;;;;;;10.07;84.30;98055.56;4249319;28;20230;-73
2023/12/25 11:07:03;;;;;;;3.80;1.50;;;;;;;10.47;82.08;98053.00;4248040;28;20451;-73
2023/12/25 11:09:30;;;;;;;7.20;1.50;;;;;;;10.02;83.20;98063.47;4268189;28;20233;-73
2023/12/25 11:11:59;;;;;;;6.57;1.77;;;;;;;9.97;83.56;98058.66;4252201;28;22187;-73
2023/12/25 11:14:28;;;;;;;6.80;1.70;;;;;;;9.82;83.27;98050.69;4235293;28;23383;-73
2023/12/25 11:16:55;;;;;;;7.33;1.50;;;;;;;9.58;84.80;98039.38;4230377;28;20383;-73
2023/12/25 11:19:22;;;;;;;5.87;1.70;;;;;;;9.48;85.96;98055.91;4228318;28;20325;-73
2023/12/25 11:21:49;;;;;;;6.13;1.67;;;;;;;9.28;87.28;98042.34;4230196;28;20290;-73
2023/12/25 11:24:16;;;;;;;10.57;2.00;;;;;;;9.25;87.89;98050.81;4273994;28;21490;-74
2023/12/25 11:26:44;;;;;;;8.27;1.70;;;;;;;9.19;88.95;98048.91;4248090;28;20240;-74
2023/12/25 11:29:11;;;;;;;7.73;1.70;;;;;;;9.16;89.60;98049.28;4238252;28;20231;-76
2023/12/25 11:31:45;;;;;;;4.67;1.57;;;;;;;9.28;89.45;98045.03;4244975;28;21627;-74
2023/12/25 11:34:23;;;;;;;5.90;1.67;;;;;;;9.31;88.84;98041.09;4229362;28;20260;-72